Weather at Hiltaba Airport

Public forecast

Using degrees Celsius for public forecast. Weather courtesy of forecast.io.

Closest aviation weather report (METAR) to Hiltaba Airport

Closest report is Ceduna Airport, 70.6 nm (130.8 km) W. Retrieved 2021/06/23 03:00 UTC (20 minutes ago):

YCDU 230300Z AUTO 33022KT 9999 // NCD 14/06 Q1009

Closest aviation forecast (TAF) to Hiltaba Airport

Forecast is more than 12 hours old.

Closest forecast is Woomera Airfield, 106.3 nm (196.9 km) NE. Retrieved 2021/06/22 06:00 UTC (21 hours ago):

TAF YPWR 220536Z 2206/2300 01017G27KT CAVOK FM220800 01015KT 9999 -RA SCT050 FM221400 01014KT 9999 -RA SCT010 BKN020 INTER 2212/2214 4000 RA SCT015 SCT025 TEMPO 2214/2300 3000 RA BKN010